Time;durP1;ratioP1;P1;durP2;ratioP2;P2;SDS_P1;SDS_P2;PMS_P1;PMS_P2;Temp;Humidity;BMP_temperature;BMP_pressure;BME280_temperature;BME280_humidity;BME280_pressure;Samples;Min_cycle;Max_cycle;Signal;HPM_P1;HPM_P2
2023/03/20 00:00:44;;;;;;;;;;;8.30;99.90;;;;;;5034994;28;19914;-76
2023/03/20 00:03:10;;;;;;;;;;;8.30;99.90;;;;;;5034167;28;19909;-76
2023/03/20 00:05:36;;;;;;;;;;;8.30;99.90;;;;;;5035373;28;20388;-76
2023/03/20 00:08:02;;;;;;;;;;;8.30;99.90;;;;;;5035264;28;19959;-76
2023/03/20 00:10:31;;;;;;;;;;;8.20;99.90;;;;;;5035378;28;19913;-76
2023/03/20 00:12:56;;;;;;;;;;;8.30;99.90;;;;;;5035264;28;19909;-76
2023/03/20 00:15:28;;;;;;;;;;;8.20;99.90;;;;;;5035219;28;20004;-76
2023/03/20 00:17:54;;;;;;;;;;;8.20;99.90;;;;;;5035310;28;19909;-76
2023/03/20 00:20:20;;;;;;;;;;;8.20;99.90;;;;;;5035365;28;20276;-76
2023/03/20 00:22:46;;;;;;;;;;;8.30;99.90;;;;;;5035633;28;20277;-76
2023/03/20 00:25:13;;;;;;;;;;;8.30;99.90;;;;;;5034781;28;19924;-76
2023/03/20 00:27:39;;;;;;;;;;;8.30;99.90;;;;;;5035071;28;19917;-76
2023/03/20 00:30:15;;;;;;;;;;;8.30;99.90;;;;;;5034820;28;19988;-76
2023/03/20 00:32:40;;;;;;;;;;;8.20;99.90;;;;;;5034977;28;19916;-76
2023/03/20 00:35:20;;;;;;;;;;;8.20;99.90;;;;;;5034597;28;19996;-76
2023/03/20 00:37:46;;;;;;;;;;;8.20;99.90;;;;;;5034862;28;19913;-76
2023/03/20 00:40:12;;;;;;;;;;;8.20;99.90;;;;;;5034242;28;19913;-76
2023/03/20 00:42:37;;;;;;;;;;;8.20;99.90;;;;;;5034377;28;19949;-76
2023/03/20 00:45:04;;;;;;;;;;;8.20;99.90;;;;;;5016601;28;20385;-76
2023/03/20 00:47:31;;;;;;;;;;;8.20;99.90;;;;;;5034400;28;19913;-76
2023/03/20 00:49:57;;;;;;;;;;;8.20;99.90;;;;;;5034859;28;19916;-76
2023/03/20 00:52:23;;;;;;;;;;;8.20;99.90;;;;;;5034097;28;19909;-76
2023/03/20 00:54:48;;;;;;;;;;;8.20;99.90;;;;;;5033856;28;20376;-76
2023/03/20 00:57:24;;;;;;;;;;;8.20;99.90;;;;;;5033989;28;19913;-76
2023/03/20 00:59:58;;;;;;;;;;;8.20;99.90;;;;;;5034539;28;20000;-77
2023/03/20 01:02:25;;;;;;;;;;;8.20;99.90;;;;;;5033826;28;19916;-76
2023/03/20 01:04:51;;;;;;;;;;;8.20;99.90;;;;;;5034003;28;20297;-76
2023/03/20 01:07:17;;;;;;;;;;;8.20;99.90;;;;;;5033883;28;19917;-76
2023/03/20 01:09:43;;;;;;;;;;;8.20;99.90;;;;;;5033392;28;19920;-76
2023/03/20 01:12:12;;;;;;;;;;;8.20;99.90;;;;;;5033545;28;19913;-76
2023/03/20 01:14:37;;;;;;;;;;;8.20;99.90;;;;;;5033576;28;19913;-76
2023/03/20 01:17:03;;;;;;;;;;;8.20;99.90;;;;;;5033778;28;20266;-76
2023/03/20 01:19:29;;;;;;;;;;;8.20;99.90;;;;;;5033690;28;19944;-76
2023/03/20 01:21:55;;;;;;;;;;;8.10;99.90;;;;;;5034354;28;19925;-76
2023/03/20 01:24:21;;;;;;;;;;;8.10;99.90;;;;;;5015757;28;19929;-76
2023/03/20 01:26:48;;;;;;;;;;;8.10;99.90;;;;;;5034239;28;19940;-76
2023/03/20 01:29:24;;;;;;;;;;;8.10;99.90;;;;;;5016054;28;19913;-76
2023/03/20 01:31:50;;;;;;;;;;;8.10;99.90;;;;;;5033954;28;19913;-76
2023/03/20 01:34:15;;;;;;;;;;;8.00;99.90;;;;;;5033683;28;19909;-76
2023/03/20 01:36:44;;;;;;;;;;;8.00;99.90;;;;;;5015751;28;19924;-76
2023/03/20 01:39:10;;;;;;;;;;;8.10;99.90;;;;;;5032978;28;20406;-76
2023/03/20 01:41:35;;;;;;;;;;;8.10;99.90;;;;;;5033508;28;19913;-76
2023/03/20 01:44:15;;;;;;;;;;;8.00;99.90;;;;;;5033018;28;20312;-76
2023/03/20 01:46:40;;;;;;;;;;;8.00;99.90;;;;;;5033799;28;19916;-76
2023/03/20 01:49:18;;;;;;;;;;;8.00;99.90;;;;;;5034046;28;19913;-76
2023/03/20 01:51:44;;;;;;;;;;;8.00;99.90;;;;;;5033433;28;20336;-76
2023/03/20 01:54:14;;;;;;;;;;;8.00;99.90;;;;;;5033537;28;19913;-76
2023/03/20 01:56:43;;;;;;;;;;;8.00;99.90;;;;;;5033390;28;20008;-77
2023/03/20 01:59:14;;;;;;;;;;;7.90;99.90;;;;;;5033392;28;20336;-76
2023/03/20 02:01:39;;;;;;;;;;;7.80;99.90;;;;;;5033247;28;19909;-76
2023/03/20 02:04:05;;;;;;;;;;;7.80;99.90;;;;;;5014503;28;19919;-76
2023/03/20 02:06:32;;;;;;;;;;;7.80;99.90;;;;;;5032851;28;19920;-76
2023/03/20 02:08:57;;;;;;;;;;;7.80;99.90;;;;;;5032971;28;19917;-76
2023/03/20 02:11:24;;;;;;;;;;;7.80;99.90;;;;;;5032919;28;19963;-76
2023/03/20 02:13:54;;;;;;;;;;;7.90;99.90;;;;;;5033058;28;20288;-76
2023/03/20 02:16:19;;;;;;;;;;;7.80;99.90;;;;;;5028043;28;19920;-76
2023/03/20 02:18:47;;;;;;;;;;;7.80;99.90;;;;;;5032658;28;19913;-76
2023/03/20 02:21:13;;;;;;;;;;;7.80;99.90;;;;;;5033041;28;19952;-76
2023/03/20 02:23:47;;;;;;;;;;;7.80;99.90;;;;;;5032856;28;19924;-76
2023/03/20 02:26:25;;;;;;;;;;;7.80;99.90;;;;;;5034764;28;19920;-77
2023/03/20 02:29:02;;;;;;;;;;;7.90;99.90;;;;;;5036024;28;19980;-77
2023/03/20 02:31:35;;;;;;;;;;;7.90;99.90;;;;;;5034626;28;19944;-77
2023/03/20 02:34:04;;;;;;;;;;;7.80;99.90;;;;;;5036354;28;19909;-77
2023/03/20 02:36:41;;;;;;;;;;;7.90;99.90;;;;;;5036265;28;20285;-77
2023/03/20 02:39:10;;;;;;;;;;;7.90;99.90;;;;;;5036192;28;20292;-77
2023/03/20 02:41:41;;;;;;;;;;;7.80;99.90;;;;;;5035611;28;20052;-77
2023/03/20 02:44:19;;;;;;;;;;;7.80;99.90;;;;;;5035733;28;19975;-77
2023/03/20 02:46:44;;;;;;;;;;;7.80;99.90;;;;;;5035200;28;19909;-77
2023/03/20 02:49:23;;;;;;;;;;;7.80;99.90;;;;;;5035395;28;19916;-77
2023/03/20 02:51:55;;;;;;;;;;;7.80;99.90;;;;;;5036562;28;19916;-77
2023/03/20 02:54:35;;;;;;;;;;;7.80;99.90;;;;;;5018172;28;20014;-77
2023/03/20 02:57:03;;;;;;;;;;;7.80;99.90;;;;;;5036463;28;19920;-77
2023/03/20 02:59:31;;;;;;;;;;;7.90;99.90;;;;;;5018680;28;20424;-77
2023/03/20 03:02:01;;;;;;;;;;;7.90;99.90;;;;;;5036062;28;19995;-77
2023/03/20 03:04:31;;;;;;;;;;;7.80;99.90;;;;;;5035994;28;19959;-77
2023/03/20 03:06:58;;;;;;;;;;;7.90;99.90;;;;;;5036387;28;19909;-77
2023/03/20 03:09:26;;;;;;;;;;;7.80;99.90;;;;;;5036365;28;19963;-77
2023/03/20 03:11:54;;;;;;;;;;;7.80;99.90;;;;;;5036181;28;19909;-77
2023/03/20 03:14:32;;;;;;;;;;;7.80;99.90;;;;;;5018053;28;20254;-77
2023/03/20 03:17:00;;;;;;;;;;;7.90;99.90;;;;;;5035726;28;19920;-77
2023/03/20 03:19:27;;;;;;;;;;;7.80;99.90;;;;;;5035774;28;20451;-77
2023/03/20 03:21:52;;;;;;;;;;;7.80;99.90;;;;;;5017937;28;19916;-76
2023/03/20 03:24:30;;;;;;;;;;;7.80;99.90;;;;;;5017507;28;19921;-77
2023/03/20 03:26:58;;;;;;;;;;;7.80;99.90;;;;;;5035633;28;20007;-77
2023/03/20 03:29:25;;;;;;;;;;;7.70;99.90;;;;;;5035593;28;19913;-76
2023/03/20 03:31:51;;;;;;;;;;;7.70;99.90;;;;;;5035512;28;19916;-77
2023/03/20 03:34:17;;;;;;;;;;;7.70;99.90;;;;;;5018081;28;19913;-77
2023/03/20 03:36:53;;;;;;;;;;;7.70;99.90;;;;;;5034967;28;19917;-77
2023/03/20 03:39:31;;;;;;;;;;;7.70;99.90;;;;;;5034553;28;19916;-77
2023/03/20 03:42:23;;;;;;;;;;;7.70;99.90;;;;;;5035262;28;19917;-77
2023/03/20 03:44:55;;;;;;;;;;;7.60;99.90;;;;;;5031214;28;19913;-77
2023/03/20 03:47:31;;;;;;;;;;;7.60;99.90;;;;;;5035505;28;19909;-77
2023/03/20 03:49:59;;;;;;;;;;;7.60;99.90;;;;;;5035249;28;19909;-77
2023/03/20 03:52:26;;;;;;;;;;;7.60;99.90;;;;;;5035361;28;19932;-77
2023/03/20 03:54:55;;;;;;;;;;;7.60;99.90;;;;;;5034755;28;19909;-77
2023/03/20 03:57:23;;;;;;;;;;;7.50;99.90;;;;;;5034994;28;19909;-77
2023/03/20 03:59:49;;;;;;;;;;;7.60;99.90;;;;;;5035893;28;19992;-77
2023/03/20 04:02:18;;;;;;;;;;;7.60;99.90;;;;;;5017152;28;19916;-77
2023/03/20 04:04:45;;;;;;;;;;;7.60;99.90;;;;;;5035208;28;19955;-77
2023/03/20 04:07:12;;;;;;;;;;;7.60;99.90;;;;;;5016891;28;20004;-77
2023/03/20 04:09:38;;;;;;;;;;;7.50;99.90;;;;;;5034747;28;20274;-77
2023/03/20 04:12:04;;;;;;;;;;;7.50;99.90;;;;;;5035049;28;19959;-77
2023/03/20 04:14:30;;;;;;;;;;;7.50;99.90;;;;;;5034628;28;20419;-77
2023/03/20 04:16:55;;;;;;;;;;;7.50;99.90;;;;;;5034886;28;19917;-77
2023/03/20 04:19:21;;;;;;;;;;;7.40;99.90;;;;;;5034877;28;20344;-77
2023/03/20 04:21:46;;;;;;;;;;;7.40;99.90;;;;;;5034554;28;19909;-77
2023/03/20 04:24:12;;;;;;;;;;;7.40;99.90;;;;;;5016589;28;19979;-76
2023/03/20 04:26:38;;;;;;;;;;;7.40;99.90;;;;;;5034488;28;20027;-77
2023/03/20 04:29:04;;;;;;;;;;;7.40;99.90;;;;;;5016638;28;19999;-77
2023/03/20 04:31:30;;;;;;;;;;;7.50;99.90;;;;;;5034554;28;20329;-77
2023/03/20 04:33:55;;;;;;;;;;;7.50;99.90;;;;;;5034525;28;19913;-77
2023/03/20 04:36:21;;;;;;;;;;;7.40;99.90;;;;;;5034156;28;19918;-76
2023/03/20 04:38:47;;;;;;;;;;;7.40;99.90;;;;;;5034604;28;19913;-77
2023/03/20 04:41:12;;;;;;;;;;;7.40;99.90;;;;;;5033785;28;19914;-77
2023/03/20 04:43:39;;;;;;;;;;;7.30;99.90;;;;;;5034132;28;19988;-77
2023/03/20 04:46:05;;;;;;;;;;;7.30;99.90;;;;;;5034228;28;19920;-77
2023/03/20 04:48:30;;;;;;;;;;;7.20;99.90;;;;;;5016169;28;19909;-77
2023/03/20 04:50:56;;;;;;;;;;;7.20;99.90;;;;;;5034199;28;19913;-77
2023/03/20 04:53:22;;;;;;;;;;;7.10;99.90;;;;;;5034094;28;19913;-77
2023/03/20 04:55:48;;;;;;;;;;;7.20;99.90;;;;;;5033861;28;19913;-77
2023/03/20 04:58:14;;;;;;;;;;;7.20;99.90;;;;;;5016323;28;19999;-77
2023/03/20 05:00:39;;;;;;;;;;;7.20;99.90;;;;;;5034194;28;19941;-77
2023/03/20 05:03:05;;;;;;;;;;;7.20;99.90;;;;;;5034021;28;19913;-77
2023/03/20 05:05:32;;;;;;;;;;;7.20;99.90;;;;;;5033955;28;19963;-77
2023/03/20 05:07:58;;;;;;;;;;;7.30;99.90;;;;;;5033902;28;20373;-77
2023/03/20 05:10:24;;;;;;;;;;;7.30;99.90;;;;;;5033793;28;19913;-77
2023/03/20 05:12:49;;;;;;;;;;;7.30;99.90;;;;;;5016181;28;19917;-77
2023/03/20 05:15:15;;;;;;;;;;;7.30;99.90;;;;;;5033798;28;19917;-77
2023/03/20 05:17:41;;;;;;;;;;;7.20;99.90;;;;;;5033982;28;19921;-77
2023/03/20 05:20:06;;;;;;;;;;;7.20;99.90;;;;;;5033977;28;19924;-77
2023/03/20 05:22:32;;;;;;;;;;;7.10;99.90;;;;;;5016026;28;20359;-77
2023/03/20 05:24:59;;;;;;;;;;;7.10;99.90;;;;;;5033487;28;19925;-77
2023/03/20 05:27:25;;;;;;;;;;;7.00;99.90;;;;;;5033771;28;19991;-77
2023/03/20 05:29:50;;;;;;;;;;;7.00;99.90;;;;;;5033650;28;20281;-77
2023/03/20 05:32:16;;;;;;;;;;;7.00;99.90;;;;;;5015978;28;19913;-77
2023/03/20 05:34:42;;;;;;;;;;;7.10;99.90;;;;;;5033492;28;19967;-77
2023/03/20 05:37:07;;;;;;;;;;;7.10;99.90;;;;;;5033571;28;19936;-77
2023/03/20 05:39:33;;;;;;;;;;;7.10;99.90;;;;;;5033648;28;19909;-77
2023/03/20 05:41:58;;;;;;;;;;;7.10;99.90;;;;;;5033786;28;20379;-77
2023/03/20 05:44:24;;;;;;;;;;;7.10;99.90;;;;;;5033480;28;19960;-77
2023/03/20 05:46:50;;;;;;;;;;;7.20;99.90;;;;;;4999443;28;20016;-77
2023/03/20 05:49:15;;;;;;;;;;;7.20;99.90;;;;;;5033844;28;19913;-77
2023/03/20 05:51:41;;;;;;;;;;;7.30;99.90;;;;;;5015798;28;20339;-77
2023/03/20 05:54:06;;;;;;;;;;;7.30;99.90;;;;;;5033398;28;19969;-77
2023/03/20 05:56:32;;;;;;;;;;;7.30;99.90;;;;;;5033235;28;19924;-77
2023/03/20 05:58:57;;;;;;;;;;;7.30;99.90;;;;;;5033706;28;19959;-77
2023/03/20 06:01:23;;;;;;;;;;;7.30;99.90;;;;;;5034992;28;19913;-77
2023/03/20 06:03:49;;;;;;;;;;;7.30;99.90;;;;;;5037115;28;19909;-77
2023/03/20 06:06:15;;;;;;;;;;;7.30;99.90;;;;;;5037430;28;19967;-77
2023/03/20 06:08:41;;;;;;;;;;;7.20;99.90;;;;;;5037023;28;20324;-77
2023/03/20 06:11:07;;;;;;;;;;;7.20;99.90;;;;;;5036960;28;19996;-77
2023/03/20 06:13:32;;;;;;;;;;;7.10;99.90;;;;;;5037110;28;19952;-77
2023/03/20 06:15:58;;;;;;;;;;;7.10;99.90;;;;;;5036915;28;20369;-77
2023/03/20 06:18:23;;;;;;;;;;;7.10;99.90;;;;;;5037025;28;19920;-77
2023/03/20 06:20:52;;;;;;;;;;;7.00;99.90;;;;;;5037080;28;19968;-77
2023/03/20 06:23:18;;;;;;;;;;;7.10;99.90;;;;;;5036724;28;19920;-77
2023/03/20 06:25:44;;;;;;;;;;;7.10;99.90;;;;;;5036890;28;20391;-77
2023/03/20 06:28:09;;;;;;;;;;;7.00;99.90;;;;;;5037052;28;19913;-77
2023/03/20 06:30:36;;;;;;;;;;;7.10;99.90;;;;;;5019291;28;19920;-77
2023/03/20 06:33:02;;;;;;;;;;;7.00;99.90;;;;;;5037241;28;20273;-77
2023/03/20 06:35:30;;;;;;;;;;;7.00;99.90;;;;;;5037016;28;19920;-77
2023/03/20 06:37:56;;;;;;;;;;;7.00;99.90;;;;;;5019426;28;20372;-77
2023/03/20 06:40:21;;;;;;;;;;;7.00;99.90;;;;;;5036903;28;20384;-78
2023/03/20 06:42:47;;;;;;;;;;;7.00;99.90;;;;;;5037623;28;19921;-78
2023/03/20 06:45:12;;;;;;;;;;;7.00;99.90;;;;;;5037781;28;19913;-78
2023/03/20 06:47:38;;;;;;;;;;;7.00;99.90;;;;;;5039421;28;19917;-78
2023/03/20 06:50:04;;;;;;;;;;;7.00;99.90;;;;;;5039389;28;19917;-78
2023/03/20 06:52:29;;;;;;;;;;;7.00;99.90;;;;;;5039408;28;19937;-78
2023/03/20 06:54:56;;;;;;;;;;;7.00;99.90;;;;;;5039037;28;19914;-78
2023/03/20 06:57:21;;;;;;;;;;;7.00;99.90;;;;;;5040150;28;19947;-79
2023/03/20 06:59:47;;;;;;;;;;;7.00;99.90;;;;;;5040778;28;20277;-79
2023/03/20 07:02:12;;;;;;;;;;;7.00;99.90;;;;;;5039641;28;20373;-79
2023/03/20 07:04:38;;;;;;;;;;;7.00;99.90;;;;;;5040227;28;20365;-78
2023/03/20 07:07:04;;;;;;;;;;;7.00;99.90;;;;;;5039831;28;19960;-78
2023/03/20 07:09:29;;;;;;;;;;;7.00;99.90;;;;;;5039332;28;20015;-78
2023/03/20 07:11:55;;;;;;;;;;;7.10;99.90;;;;;;5020795;28;20289;-78
2023/03/20 07:14:21;;;;;;;;;;;7.10;99.90;;;;;;5022104;28;19913;-78
2023/03/20 07:16:47;;;;;;;;;;;7.10;99.90;;;;;;5039927;28;20328;-78
2023/03/20 07:19:12;;;;;;;;;;;7.10;99.90;;;;;;5040047;28;20258;-78
2023/03/20 07:21:38;;;;;;;;;;;7.00;99.90;;;;;;5039897;28;19972;-78
2023/03/20 07:24:06;;;;;;;;;;;7.10;99.90;;;;;;5021721;28;19924;-78
2023/03/20 07:26:31;;;;;;;;;;;7.10;99.90;;;;;;5039457;28;19913;-78
2023/03/20 07:28:57;;;;;;;;;;;7.10;99.90;;;;;;5039966;28;20344;-79
2023/03/20 07:31:23;;;;;;;;;;;7.10;99.90;;;;;;5021850;28;19960;-78
2023/03/20 07:33:49;;;;;;;;;;;7.20;99.90;;;;;;5039584;28;19962;-78
2023/03/20 07:36:15;;;;;;;;;;;7.10;99.90;;;;;;5039141;28;19948;-78
2023/03/20 07:38:40;;;;;;;;;;;7.20;99.90;;;;;;5039908;28;19913;-79
2023/03/20 07:41:06;;;;;;;;;;;7.20;99.90;;;;;;5038944;28;19913;-79
2023/03/20 07:43:32;;;;;;;;;;;7.20;99.90;;;;;;5021729;28;19944;-79
2023/03/20 07:46:00;;;;;;;;;;;7.20;99.90;;;;;;5037668;28;19909;-77
2023/03/20 07:48:26;;;;;;;;;;;7.20;99.90;;;;;;5035317;28;19972;-77
2023/03/20 07:50:51;;;;;;;;;;;7.20;99.90;;;;;;5020045;28;19913;-78
2023/03/20 07:53:17;;;;;;;;;;;7.20;99.90;;;;;;5039248;28;20391;-78
2023/03/20 07:55:43;;;;;;;;;;;7.20;99.90;;;;;;5017292;28;19917;-78
2023/03/20 07:58:08;;;;;;;;;;;7.20;99.90;;;;;;5038942;28;19924;-78
2023/03/20 08:00:34;;;;;;;;;;;7.20;99.90;;;;;;5039742;28;19914;-78
2023/03/20 08:02:59;;;;;;;;;;;7.20;99.90;;;;;;5040187;28;20060;-78
2023/03/20 08:05:26;;;;;;;;;;;7.20;99.90;;;;;;5039351;28;20469;-78
2023/03/20 08:07:52;;;;;;;;;;;7.20;99.90;;;;;;5039265;28;19991;-78
2023/03/20 08:10:18;;;;;;;;;;;7.20;99.90;;;;;;5039783;28;20020;-78
2023/03/20 08:12:44;;;;;;;;;;;7.20;99.90;;;;;;5039244;28;20388;-78
2023/03/20 08:15:10;;;;;;;;;;;7.20;99.90;;;;;;5038422;28;19917;-78
2023/03/20 08:17:35;;;;;;;;;;;7.20;99.90;;;;;;5039054;28;19976;-78
2023/03/20 08:20:01;;;;;;;;;;;7.20;99.90;;;;;;5039410;28;19913;-79
2023/03/20 08:22:26;;;;;;;;;;;7.20;99.90;;;;;;5004389;28;19963;-78
2023/03/20 08:24:52;;;;;;;;;;;7.30;99.90;;;;;;5037984;28;19928;-78
2023/03/20 08:27:17;;;;;;;;;;;7.20;99.90;;;;;;5040090;28;19913;-78
2023/03/20 08:29:43;;;;;;;;;;;7.30;99.90;;;;;;5037259;28;20003;-78
2023/03/20 08:32:09;;;;;;;;;;;7.30;99.90;;;;;;5034898;28;20407;-77
2023/03/20 08:34:34;;;;;;;;;;;7.30;99.90;;;;;;5036076;28;19919;-77
2023/03/20 08:37:02;;;;;;;;;;;7.30;99.90;;;;;;5036513;28;19960;-77
2023/03/20 08:39:28;;;;;;;;;;;7.30;99.90;;;;;;5036542;28;19909;-78
2023/03/20 08:41:53;;;;;;;;;;;7.30;99.90;;;;;;5018789;28;20368;-78
2023/03/20 08:44:19;;;;;;;;;;;7.30;99.90;;;;;;5036414;28;20012;-75
2023/03/20 08:46:45;;;;;;;;;;;7.30;99.90;;;;;;5016976;28;20027;-78
2023/03/20 08:49:11;;;;;;;;;;;7.30;99.90;;;;;;5034555;28;19920;-77
2023/03/20 08:51:36;;;;;;;;;;;7.30;99.90;;;;;;5034320;28;19913;-76
2023/03/20 08:54:02;;;;;;;;;;;7.40;99.90;;;;;;5016366;28;20019;-76
2023/03/20 08:56:27;;;;;;;;;;;7.40;99.90;;;;;;5033781;28;19918;-76
2023/03/20 08:58:54;;;;;;;;;;;7.40;99.90;;;;;;5034018;28;19920;-76
2023/03/20 09:01:20;;;;;;;;;;;7.40;99.90;;;;;;5034246;28;19913;-76
2023/03/20 09:03:45;;;;;;;;;;;7.40;99.90;;;;;;5033944;28;19932;-76
2023/03/20 09:06:11;;;;;;;;;;;7.50;99.90;;;;;;5034204;28;19920;-76
2023/03/20 09:08:36;;;;;;;;;;;7.50;99.90;;;;;;5033928;28;19913;-76
2023/03/20 09:11:03;;;;;;;;;;;7.50;99.90;;;;;;5034284;28;19913;-78
2023/03/20 09:13:29;;;;;;;;;;;7.50;99.90;;;;;;5034121;28;20423;-75
2023/03/20 09:15:54;;;;;;;;;;;7.50;99.90;;;;;;5034011;28;19918;-74
2023/03/20 09:18:20;;;;;;;;;;;7.50;99.90;;;;;;5034064;28;19909;-75
2023/03/20 09:20:46;;;;;;;;;;;7.50;99.90;;;;;;5034034;28;20008;-75
2023/03/20 09:23:12;;;;;;;;;;;7.50;99.90;;;;;;5033863;28;19941;-75
2023/03/20 09:25:37;;;;;;;;;;;7.60;99.90;;;;;;5033652;28;19913;-75
2023/03/20 09:28:03;;;;;;;;;;;7.60;99.90;;;;;;5033753;28;19956;-75
2023/03/20 09:30:28;;;;;;;;;;;7.70;99.90;;;;;;5033723;28;19924;-75
2023/03/20 09:32:54;;;;;;;;;;;7.70;99.90;;;;;;5033932;28;19967;-75
2023/03/20 09:35:20;;;;;;;;;;;7.80;99.90;;;;;;5017373;28;19968;-75
2023/03/20 09:37:46;;;;;;;;;;;7.90;99.90;;;;;;5037698;28;20369;-75
2023/03/20 09:40:32;;;;;;;;;;;7.90;99.90;;;;;;5037969;28;19920;-75
2023/03/20 09:43:14;;;;;;;;;;;8.00;99.90;;;;;;5037109;28;19909;-75
2023/03/20 09:45:43;;;;;;;;;;;8.00;99.90;;;;;;5037938;28;20340;-75
2023/03/20 09:48:22;;;;;;;;;;;8.00;99.90;;;;;;5037971;28;20007;-75
2023/03/20 09:51:08;;;;;;;;;;;8.00;99.90;;;;;;5037540;28;20374;-75
2023/03/20 09:53:37;;;;;;;;;;;8.00;99.90;;;;;;4996719;28;20325;-75
2023/03/20 09:56:05;;;;;;;;;;;8.10;99.90;;;;;;5037040;28;19913;-75
2023/03/20 09:58:32;;;;;;;;;;;8.10;99.90;;;;;;5037595;28;20273;-75
2023/03/20 10:00:59;;;;;;;;;;;8.10;99.90;;;;;;5037529;28;19910;-75
2023/03/20 10:03:43;;;;;;;;;;;8.10;99.90;;;;;;5037144;28;19910;-75
2023/03/20 10:06:13;;;;;;;;;;;8.10;99.90;;;;;;5037140;28;20335;-75
2023/03/20 10:08:39;;;;;;;;;;;8.10;99.90;;;;;;5036998;28;19921;-75
2023/03/20 10:11:10;;;;;;;;;;;8.20;99.90;;;;;;5037174;28;20296;-75
2023/03/20 10:13:36;;;;;;;;;;;8.20;99.90;;;;;;5036952;28;19989;-75
2023/03/20 10:16:01;;;;;;;;;;;8.20;99.90;;;;;;5036904;28;19917;-75
2023/03/20 10:18:28;;;;;;;;;;;8.20;99.90;;;;;;5036885;28;19931;-75
2023/03/20 10:20:58;;;;;;;;;;;8.30;99.90;;;;;;5036801;28;19909;-74
2023/03/20 10:23:41;;;;;;;;;;;8.30;99.90;;;;;;5036710;28;20369;-75
2023/03/20 10:26:11;;;;;;;;;;;8.40;99.90;;;;;;5036548;28;19909;-75
2023/03/20 10:28:46;;;;;;;;;;;8.40;99.90;;;;;;5036752;28;19909;-75
2023/03/20 10:31:26;;;;;;;;;;;8.50;99.90;;;;;;5036846;28;19996;-74
2023/03/20 10:33:51;;;;;;;;;;;8.50;99.90;;;;;;5036890;28;19956;-74
2023/03/20 10:36:29;;;;;;;;;;;8.60;99.90;;;;;;5036589;28;19971;-75
2023/03/20 10:39:13;;;;;;;;;;;8.70;99.90;;;;;;5017267;28;19909;-75
2023/03/20 10:41:41;;;;;;;;;;;8.70;99.90;;;;;;5016802;28;20008;-75
2023/03/20 10:44:15;;;;;;;;;;;8.70;99.90;;;;;;5016777;28;19910;-75
2023/03/20 10:46:43;;;;;;;;;;;8.80;99.90;;;;;;5016726;28;19915;-75
2023/03/20 10:49:28;;;;;;;;;;;8.80;99.90;;;;;;5016911;28;19913;-75
2023/03/20 10:51:55;;;;;;;;;;;8.80;99.90;;;;;;5017166;28;19910;-74
2023/03/20 10:54:28;;;;;;;;;;;8.80;99.90;;;;;;5016954;28;19956;-74
2023/03/20 10:56:55;;;;;;;;;;;8.80;99.90;;;;;;5016686;28;19914;-74
2023/03/20 10:59:22;;;;;;;;;;;8.90;99.90;;;;;;5016991;28;20003;-74
2023/03/20 11:01:48;;;;;;;;;;;8.90;99.90;;;;;;5017388;28;20384;-75
2023/03/20 11:04:13;;;;;;;;;;;9.00;99.90;;;;;;5016584;28;19914;-74
2023/03/20 11:07:02;;;;;;;;;;;9.00;99.90;;;;;;5019137;28;20317;-75
2023/03/20 11:09:31;;;;;;;;;;;9.10;99.90;;;;;;5022954;28;20475;-75
2023/03/20 11:11:57;;;;;;;;;;;9.30;99.90;;;;;;5035926;28;19936;-75
2023/03/20 11:14:31;;;;;;;;;;;9.50;99.90;;;;;;5035990;28;20281;-74
2023/03/20 11:16:59;;;;;;;;;;;9.80;99.90;;;;;;5018142;28;19921;-75
2023/03/20 11:19:24;;;;;;;;;;;10.00;99.90;;;;;;5035993;28;19909;-75
2023/03/20 11:21:55;;;;;;;;;;;10.10;99.90;;;;;;5036247;28;20008;-75
2023/03/20 11:24:23;;;;;;;;;;;10.30;99.90;;;;;;5017885;28;19925;-74
2023/03/20 11:26:50;;;;;;;;;;;10.50;99.90;;;;;;5035479;28;19991;-74
2023/03/20 11:29:21;;;;;;;;;;;10.60;99.90;;;;;;5035807;28;19913;-75
2023/03/20 11:31:47;;;;;;;;;;;10.70;99.90;;;;;;5035917;28;19955;-75
2023/03/20 11:34:12;;;;;;;;;;;10.70;99.90;;;;;;5035529;28;19917;-75
2023/03/20 11:36:52;;;;;;;;;;;10.80;99.90;;;;;;5035339;28;20397;-75
2023/03/20 11:39:28;;;;;;;;;;;10.80;99.90;;;;;;5035826;28;19913;-75
2023/03/20 11:41:55;;;;;;;;;;;10.90;99.90;;;;;;5035211;28;19984;-75
2023/03/20 11:44:50;;;;;;;;;;;11.00;99.90;;;;;;5035688;28;20322;-75
2023/03/20 11:47:20;;;;;;;;;;;11.00;99.90;;;;;;5022746;28;20282;-75
2023/03/20 11:49:56;;;;;;;;;;;11.00;99.90;;;;;;5036036;28;19909;-75
2023/03/20 11:52:31;;;;;;;;;;;10.90;99.90;;;;;;5035641;28;19955;-75
2023/03/20 11:54:59;;;;;;;;;;;10.80;99.90;;;;;;5035431;28;20016;-75
2023/03/20 11:57:33;;;;;;;;;;;10.80;99.90;;;;;;5034143;28;20004;-75
2023/03/20 12:00:21;;;;;;;;;;;10.70;99.90;;;;;;5034215;28;19917;-75
2023/03/20 12:02:47;;;;;;;;;;;10.70;99.90;;;;;;5024415;28;19909;-75
2023/03/20 12:05:27;;;;;;;;;;;10.70;99.90;;;;;;5034171;28;19967;-74
2023/03/20 12:07:56;;;;;;;;;;;10.70;99.90;;;;;;5034718;28;19916;-74
2023/03/20 12:10:25;;;;;;;;;;;10.70;99.90;;;;;;5034417;28;19913;-74
2023/03/20 12:12:56;;;;;;;;;;;10.80;99.90;;;;;;5034170;28;20281;-74
2023/03/20 12:15:27;;;;;;;;;;;10.80;99.90;;;;;;5034451;28;19913;-74
2023/03/20 12:17:53;;;;;;;;;;;10.80;99.90;;;;;;5032386;28;19964;-74
2023/03/20 12:20:21;;;;;;;;;;;10.80;99.90;;;;;;5034571;28;20281;-74
2023/03/20 12:22:55;;;;;;;;;;;10.80;99.90;;;;;;5034342;28;20292;-74
2023/03/20 12:25:25;;;;;;;;;;;10.80;99.90;;;;;;5034400;28;19917;-74
2023/03/20 12:28:01;;;;;;;;;;;10.90;99.90;;;;;;5034167;28;19913;-74
2023/03/20 12:30:30;;;;;;;;;;;11.00;99.90;;;;;;5016656;28;19916;-74
2023/03/20 12:33:16;;;;;;;;;;;11.10;99.90;;;;;;5016348;28;19909;-74
2023/03/20 12:35:45;;;;;;;;;;;11.20;99.90;;;;;;5034252;28;19913;-74
2023/03/20 12:38:20;;;;;;;;;;;11.20;99.90;;;;;;5016499;28;19909;-74
2023/03/20 12:40:45;;;;;;;;;;;11.30;99.90;;;;;;5028620;28;19917;-74
2023/03/20 12:43:31;;;;;;;;;;;11.30;99.90;;;;;;5034149;28;19913;-74
2023/03/20 12:45:57;;;;;;;;;;;11.40;99.90;;;;;;5034151;28;19909;-74
2023/03/20 12:48:32;;;;;;;;;;;11.40;99.90;;;;;;5034041;28;20350;-74
2023/03/20 12:51:03;;;;;;;;;;;11.40;99.90;;;;;;5034469;28;19938;-74
2023/03/20 12:53:40;;;;;;;;;;;11.40;99.90;;;;;;5034097;28;20404;-74
2023/03/20 12:56:25;;;;;;;;;;;11.40;99.90;;;;;;5033750;28;20016;-74
2023/03/20 12:59:02;;;;;;;;;;;11.40;99.90;;;;;;5034440;28;19917;-74
2023/03/20 13:01:28;;;;;;;;;;;11.40;99.90;;;;;;5034142;28;19994;-74
2023/03/20 13:04:09;;;;;;;;;;;11.40;99.90;;;;;;5034064;28;19968;-74
2023/03/20 13:06:35;;;;;;;;;;;11.40;99.90;;;;;;5016335;28;20277;-74
2023/03/20 13:09:01;;;;;;;;;;;11.50;99.90;;;;;;5034016;28;19909;-74
2023/03/20 13:11:46;;;;;;;;;;;11.50;99.90;;;;;;5033410;28;19932;-74
2023/03/20 13:14:30;;;;;;;;;;;11.50;99.90;;;;;;5033864;28;19909;-74
2023/03/20 13:17:19;;;;;;;;;;;11.50;99.90;;;;;;5034125;28;20415;-74
2023/03/20 13:20:03;;;;;;;;;;;11.50;99.90;;;;;;5005654;28;19994;-74
2023/03/20 13:22:40;;;;;;;;;;;11.50;99.90;;;;;;5034468;28;19976;-74
2023/03/20 13:25:12;;;;;;;;;;;11.50;99.90;;;;;;5016261;28;20362;-74
2023/03/20 13:27:58;;;;;;;;;;;11.40;99.90;;;;;;5033592;28;20384;-74
2023/03/20 13:30:35;;;;;;;;;;;11.40;99.90;;;;;;5033861;28;19996;-74
2023/03/20 13:33:13;;;;;;;;;;;11.30;99.90;;;;;;5034038;28;20285;-74
2023/03/20 13:35:44;;;;;;;;;;;11.30;99.90;;;;;;5033871;28;19917;-74
2023/03/20 13:38:18;;;;;;;;;;;11.40;99.90;;;;;;5033733;28;19909;-74
2023/03/20 13:40:45;;;;;;;;;;;11.30;99.90;;;;;;5033432;28;20328;-74
2023/03/20 13:43:24;;;;;;;;;;;11.30;99.90;;;;;;5033557;28;19910;-73
2023/03/20 13:45:53;;;;;;;;;;;11.30;99.90;;;;;;5033671;28;19905;-73
2023/03/20 13:48:23;;;;;;;;;;;11.30;99.90;;;;;;5032891;28;20008;-74
2023/03/20 13:50:53;;;;;;;;;;;11.30;99.90;;;;;;5032423;28;19920;-74
2023/03/20 13:53:29;;;;;;;;;;;11.30;99.90;;;;;;5032359;28;20092;-74
2023/03/20 13:55:54;;;;;;;;;;;11.30;99.90;;;;;;5033222;28;20285;-73
2023/03/20 13:58:23;;;;;;;;;;;11.30;99.90;;;;;;5033431;28;19909;-73
2023/03/20 14:00:53;;;;;;;;;;;11.30;99.90;;;;;;5034101;28;19928;-73
2023/03/20 14:03:33;;;;;;;;;;;11.40;99.90;;;;;;5033630;28;19913;-73
2023/03/20 14:05:59;;;;;;;;;;;11.30;99.90;;;;;;5033350;28;19914;-74
2023/03/20 14:08:29;;;;;;;;;;;11.30;99.90;;;;;;5015699;28;19913;-73
2023/03/20 14:11:04;;;;;;;;;;;11.30;99.90;;;;;;5033081;28;19909;-74
2023/03/20 14:13:30;;;;;;;;;;;11.30;99.90;;;;;;5033645;28;19913;-73
2023/03/20 14:15:57;;;;;;;;;;;11.30;99.90;;;;;;5033657;28;19919;-73
2023/03/20 14:18:24;;;;;;;;;;;11.30;99.90;;;;;;5015630;28;19914;-74
2023/03/20 14:20:52;;;;;;;;;;;11.40;99.90;;;;;;5033824;28;19913;-74
2023/03/20 14:23:19;;;;;;;;;;;11.30;99.90;;;;;;5036238;28;19917;-74
2023/03/20 14:25:46;;;;;;;;;;;11.30;99.90;;;;;;5037746;28;20336;-73
2023/03/20 14:28:11;;;;;;;;;;;11.30;99.90;;;;;;5019625;28;19916;-73
2023/03/20 14:30:39;;;;;;;;;;;11.30;99.90;;;;;;5037038;28;20365;-74
2023/03/20 14:33:05;;;;;;;;;;;11.30;99.90;;;;;;5018960;28;19916;-73
2023/03/20 14:35:35;;;;;;;;;;;11.30;99.90;;;;;;5037148;28;19913;-73